createdAt,value
2017-08-28T00:01:12.292Z,88.69
2017-08-28T00:02:36.519Z,88.59
2017-08-28T00:05:58.809Z,88.98
2017-08-28T00:07:33.325Z,88.59
2017-08-28T00:08:48.538Z,88.49
2017-08-28T00:09:34.202Z,88.79
2017-08-28T00:11:27.414Z,88.69
2017-08-28T00:12:27.855Z,88.59
2017-08-28T00:13:28.294Z,88.59
2017-08-28T00:14:43.676Z,88.49
2017-08-28T00:15:29.209Z,88.69
2017-08-28T00:17:22.395Z,88.40
2017-08-28T00:18:22.842Z,88.79
2017-08-28T00:19:23.293Z,88.59
2017-08-28T00:21:16.502Z,88.49
2017-08-28T00:22:16.944Z,88.69
2017-08-28T00:23:17.384Z,88.49
2017-08-28T00:24:17.839Z,88.59
2017-08-28T00:26:11.043Z,88.69
2017-08-28T00:27:11.482Z,88.11
2017-08-28T00:28:11.934Z,88.49
2017-08-28T00:29:12.363Z,88.59
2017-08-28T00:31:06.579Z,88.59
2017-08-28T00:32:59.786Z,87.73
2017-08-28T00:34:00.239Z,88.40
2017-08-28T00:35:00.669Z,88.31
2017-08-28T00:36:01.103Z,88.31
2017-08-28T00:37:59.617Z,88.88
2017-08-28T00:38:54.795Z,88.88
2017-08-28T00:40:16.368Z,88.79
2017-08-28T00:40:55.640Z,88.11
2017-08-28T00:41:56.087Z,88.59
2017-08-28T00:43:49.298Z,88.21
2017-08-28T00:44:49.746Z,88.49
2017-08-28T00:45:50.181Z,88.21
2017-08-28T00:46:50.620Z,88.49
2017-08-28T00:47:51.059Z,88.35
2017-08-28T00:49:45.259Z,88.69
2017-08-28T00:51:38.485Z,88.49
2017-08-28T00:53:31.703Z,88.45
2017-08-28T00:54:32.169Z,88.55
2017-08-28T00:55:32.584Z,88.74
2017-08-28T00:56:33.028Z,88.55
2017-08-28T00:58:26.299Z,88.55
2017-08-28T00:59:26.782Z,88.59
2017-08-28T01:00:27.200Z,88.35
2017-08-28T01:01:30.494Z,88.45
2017-08-28T01:02:28.060Z,88.45
2017-08-28T01:03:28.493Z,88.65
2017-08-28T01:06:02.074Z,88.74
2017-08-28T01:07:02.484Z,88.55
2017-08-28T01:08:02.938Z,88.45
2017-08-28T01:09:59.433Z,88.45
2017-08-28T01:10:56.668Z,88.35
2017-08-28T01:12:49.917Z,88.26
2017-08-28T01:13:50.423Z,88.26
2017-08-28T01:14:50.767Z,88.35
2017-08-28T01:15:51.197Z,88.74
2017-08-28T01:17:44.427Z,88.55
2017-08-28T01:18:44.869Z,88.55
2017-08-28T01:19:45.308Z,88.55
2017-08-28T01:20:45.790Z,88.17
2017-08-28T01:22:38.962Z,88.07
2017-08-28T01:23:39.401Z,88.65
2017-08-28T01:24:39.836Z,88.26
2017-08-28T01:25:40.274Z,88.35
2017-08-28T01:27:34.526Z,88.55
2017-08-28T01:29:28.690Z,88.26
2017-08-28T01:30:29.144Z,88.35
2017-08-28T01:31:29.575Z,88.26
2017-08-28T01:33:22.795Z,88.35
2017-08-28T01:35:20.304Z,88.65
2017-08-28T01:36:17.447Z,88.22
2017-08-28T01:37:17.876Z,88.55
2017-08-28T01:38:18.313Z,88.74
2017-08-28T01:42:24.945Z,88.35
2017-08-28T01:44:18.192Z,87.98
2017-08-28T01:47:44.493Z,88.26
2017-08-28T01:48:44.931Z,88.51
2017-08-28T01:49:45.370Z,88.35
2017-08-28T01:50:45.806Z,88.17
2017-08-28T01:51:46.243Z,88.31
2017-08-28T01:53:10.987Z,87.98
2017-08-28T01:54:39.891Z,88.07
2017-08-28T01:55:40.338Z,88.12
2017-08-28T01:56:40.775Z,88.07
2017-08-28T01:57:41.209Z,88.02
2017-08-28T01:58:41.641Z,88.51
2017-08-28T01:59:48.649Z,88.31
2017-08-28T02:00:42.515Z,88.22
2017-08-28T02:02:35.792Z,87.84
2017-08-28T02:04:29.032Z,88.31
2017-08-28T02:06:22.234Z,87.74
2017-08-28T02:08:15.467Z,88.12
2017-08-28T02:09:15.896Z,88.22
2017-08-28T02:10:16.337Z,87.74
2017-08-28T02:11:16.774Z,88.22
2017-08-28T02:12:17.211Z,88.31
2017-08-28T02:13:17.637Z,88.12
2017-08-28T02:15:10.863Z,88.41
2017-08-28T02:16:11.304Z,88.22
2017-08-28T02:17:11.738Z,88.02
2017-08-28T02:19:04.958Z,88.22
2017-08-28T02:20:05.405Z,88.22
2017-08-28T02:21:05.837Z,88.31
2017-08-28T02:22:06.270Z,88.02
2017-08-28T02:23:59.478Z,87.93
2017-08-28T02:24:59.931Z,88.02
2017-08-28T02:26:00.366Z,87.93
2017-08-28T02:27:00.806Z,87.74
2017-08-28T02:29:08.305Z,88.12
2017-08-28T02:30:47.278Z,88.12
2017-08-28T02:31:47.685Z,87.79
2017-08-28T02:32:48.119Z,88.02
2017-08-28T02:33:48.549Z,87.93
2017-08-28T02:34:49.038Z,87.84
2017-08-28T02:36:42.210Z,88.08
2017-08-28T02:37:42.654Z,88.02
2017-08-28T02:38:43.087Z,87.93
2017-08-28T02:39:43.527Z,88.02
2017-08-28T02:42:00.518Z,87.93
2017-08-28T02:42:59.357Z,87.74
2017-08-28T02:43:41.502Z,88.46
2017-08-28T02:44:41.994Z,88.08
2017-08-28T02:45:39.478Z,87.98
2017-08-28T02:47:01.088Z,87.60
2017-08-28T02:47:40.353Z,87.98
2017-08-28T02:48:40.778Z,87.88
2017-08-28T02:50:18.936Z,87.31
2017-08-28T02:50:41.653Z,87.88
2017-08-28T02:51:42.093Z,87.50
2017-08-28T02:55:09.482Z,87.79
2017-08-28T02:56:09.906Z,87.79
2017-08-28T03:00:08.014Z,87.41
2017-08-28T03:00:51.476Z,87.21
2017-08-28T03:01:37.104Z,87.41
2017-08-28T03:04:10.632Z,87.41
2017-08-28T03:07:15.453Z,87.12
2017-08-28T03:07:44.628Z,87.41
2017-08-28T03:09:20.935Z,87.41
2017-08-28T03:09:45.504Z,87.21
2017-08-28T03:11:39.715Z,87.02
2017-08-28T03:13:32.926Z,87.31
2017-08-28T03:14:33.376Z,86.88
2017-08-28T03:15:55.697Z,86.88
2017-08-28T03:17:10.194Z,87.08
2017-08-28T03:17:34.671Z,87.55
2017-08-28T03:18:35.117Z,86.69
2017-08-28T03:20:28.365Z,87.12
2017-08-28T03:22:21.588Z,87.12
2017-08-28T03:23:21.990Z,87.08
2017-08-28T03:24:22.428Z,87.37
2017-08-28T03:30:17.592Z,87.37
2017-08-28T03:31:06.791Z,87.08
2017-08-28T03:36:16.052Z,87.70
2017-08-28T03:38:01.597Z,87.79
2017-08-28T03:39:02.058Z,86.98
2017-08-28T03:40:02.476Z,87.27
2017-08-28T03:41:55.686Z,87.08
2017-08-28T03:44:13.178Z,86.98
2017-08-28T03:44:49.347Z,86.69
2017-08-28T03:45:49.786Z,86.31
2017-08-28T03:46:50.232Z,87.08
2017-08-28T03:48:43.426Z,86.98
2017-08-28T03:49:46.688Z,87.08
2017-08-28T03:50:44.313Z,87.08
2017-08-28T03:51:44.739Z,87.08
2017-08-28T03:52:45.172Z,86.98
2017-08-28T03:54:38.405Z,86.88
2017-08-28T03:55:38.834Z,86.41
2017-08-28T03:56:39.273Z,86.69
2017-08-28T03:58:32.493Z,86.88
2017-08-28T04:00:00.753Z,86.21
2017-08-28T04:00:33.359Z,86.12
2017-08-28T04:01:33.791Z,86.41
2017-08-28T04:03:27.997Z,86.50
2017-08-28T04:04:28.435Z,86.88
2017-08-28T04:05:28.868Z,85.93
2017-08-28T04:06:29.306Z,86.50
2017-08-28T04:07:29.745Z,86.50
2017-08-28T04:09:22.957Z,86.31
2017-08-28T04:10:23.396Z,87.41
2017-08-28T04:11:23.833Z,86.98
2017-08-28T04:12:24.284Z,86.98
2017-08-28T04:14:17.679Z,87.37
2017-08-28T04:15:17.951Z,86.69
2017-08-28T04:16:18.407Z,86.98
2017-08-28T04:17:18.825Z,87.17
2017-08-28T04:18:19.261Z,86.50
2017-08-28T04:19:19.697Z,86.79
2017-08-28T04:20:20.136Z,87.17
2017-08-28T04:21:20.568Z,86.88
2017-08-28T04:23:13.777Z,86.88
2017-08-28T04:24:14.215Z,86.98
2017-08-28T04:25:14.648Z,86.31
2017-08-28T04:26:15.083Z,87.17
2017-08-28T04:27:15.518Z,87.37
2017-08-28T04:29:08.736Z,86.50
2017-08-28T04:30:09.171Z,87.08
2017-08-28T04:31:09.612Z,86.88
2017-08-28T04:32:10.038Z,86.69
2017-08-28T04:33:10.473Z,87.08
2017-08-28T04:34:10.919Z,86.69
2017-08-28T04:36:04.130Z,87.08
2017-08-28T04:37:04.575Z,87.08
2017-08-28T04:38:05.009Z,87.37
2017-08-28T04:39:05.442Z,87.17
2017-08-28T04:40:05.872Z,86.88
2017-08-28T04:41:59.118Z,87.08
2017-08-28T04:42:59.535Z,86.98
2017-08-28T04:43:59.986Z,86.83
2017-08-28T04:45:00.406Z,86.98
2017-08-28T04:48:28.482Z,86.88
2017-08-28T04:50:19.929Z,87.60
2017-08-28T04:51:20.376Z,87.60
2017-08-28T04:52:20.813Z,87.17
2017-08-28T04:53:21.243Z,87.70
2017-08-28T04:54:21.679Z,87.12
2017-08-28T04:55:22.155Z,86.88
2017-08-28T04:58:49.571Z,87.50
2017-08-28T04:59:49.986Z,87.50
2017-08-28T05:01:43.201Z,87.12
2017-08-28T05:02:43.639Z,87.31
2017-08-28T05:03:44.073Z,87.41
2017-08-28T05:04:44.510Z,87.41
2017-08-28T05:06:37.727Z,87.60
2017-08-28T05:07:38.173Z,87.21
2017-08-28T05:08:38.621Z,87.70
2017-08-28T05:10:32.824Z,87.70
2017-08-28T05:11:33.250Z,87.70
2017-08-28T05:12:33.688Z,87.79
2017-08-28T05:13:34.125Z,87.50
2017-08-28T05:15:31.302Z,87.98
2017-08-28T05:16:31.754Z,87.41
2017-08-28T05:18:24.979Z,87.41
2017-08-28T05:19:25.479Z,87.60
2017-08-28T05:20:25.859Z,87.88
2017-08-28T05:22:19.063Z,88.17
2017-08-28T05:24:12.318Z,87.50
2017-08-28T05:26:05.502Z,87.41
2017-08-28T05:27:05.957Z,87.50
2017-08-28T05:28:06.387Z,87.79
2017-08-28T05:29:06.821Z,87.41
2017-08-28T05:30:07.256Z,87.41
2017-08-28T05:31:07.686Z,87.98
2017-08-28T05:32:08.124Z,87.79
2017-08-28T05:34:01.342Z,87.64
2017-08-28T05:35:01.789Z,87.88
2017-08-28T05:36:02.222Z,87.74
2017-08-28T05:37:02.660Z,87.93
2017-08-28T05:38:55.875Z,87.64
2017-08-28T05:39:56.333Z,87.84
2017-08-28T05:40:56.754Z,87.74
2017-08-28T05:41:57.201Z,88.22
2017-08-28T05:43:51.395Z,87.84
2017-08-28T05:45:44.631Z,88.35
2017-08-28T05:46:45.059Z,88.02
2017-08-28T05:47:45.494Z,88.12
2017-08-28T05:48:46.005Z,87.84
2017-08-28T05:50:39.166Z,87.74
2017-08-28T05:51:39.590Z,88.70
2017-08-28T05:52:40.082Z,88.22
2017-08-28T05:53:40.469Z,88.45
2017-08-28T05:55:34.684Z,88.07
2017-08-28T05:56:35.108Z,88.31
2017-08-28T05:57:35.549Z,87.74
2017-08-28T05:58:35.981Z,88.12
2017-08-28T05:59:36.421Z,88.02
2017-08-28T06:00:36.849Z,88.35
2017-08-28T06:01:37.290Z,88.35
2017-08-28T06:02:37.726Z,88.02
2017-08-28T06:04:30.942Z,88.26
2017-08-28T06:05:31.383Z,88.45
2017-08-28T06:06:31.830Z,88.65
2017-08-28T06:07:39.197Z,88.84
2017-08-28T06:09:25.501Z,88.55
2017-08-28T06:10:25.926Z,88.35
2017-08-28T06:11:26.372Z,88.93
2017-08-28T06:13:19.582Z,88.74
2017-08-28T06:14:20.029Z,88.26
2017-08-28T06:15:20.464Z,88.35
2017-08-28T06:16:20.906Z,87.88
2017-08-28T06:17:21.333Z,88.45
2017-08-28T06:18:21.767Z,88.45
2017-08-28T06:19:22.210Z,88.26
2017-08-28T06:20:22.645Z,88.55
2017-08-28T06:21:23.081Z,88.35
2017-08-28T06:22:23.519Z,88.17
2017-08-28T06:23:23.959Z,88.45
2017-08-28T06:24:24.392Z,88.35
2017-08-28T06:26:17.623Z,88.55
2017-08-28T06:27:18.056Z,88.49
2017-08-28T06:28:18.491Z,88.55
2017-08-28T06:29:18.926Z,88.69
2017-08-28T06:30:19.371Z,88.59
2017-08-28T06:31:19.796Z,88.31
2017-08-28T06:32:20.236Z,88.31
2017-08-28T06:34:13.458Z,88.93
2017-08-28T06:35:13.901Z,89.26
2017-08-28T06:36:14.348Z,88.69
2017-08-28T06:37:14.784Z,88.69
2017-08-28T06:38:15.216Z,88.31
2017-08-28T06:40:08.435Z,89.36
2017-08-28T06:41:08.879Z,89.07
2017-08-28T06:42:09.318Z,88.88
2017-08-28T06:43:09.755Z,88.21
2017-08-28T06:44:10.192Z,88.79
2017-08-28T06:46:03.417Z,88.69
2017-08-28T06:47:03.860Z,88.31
2017-08-28T06:48:04.297Z,88.98
2017-08-28T06:49:04.739Z,88.69
2017-08-28T06:50:05.171Z,89.40
2017-08-28T06:51:58.387Z,88.73
2017-08-28T06:52:58.833Z,88.64
2017-08-28T06:53:59.271Z,88.54
2017-08-28T06:54:59.712Z,88.98
2017-08-28T06:56:52.924Z,88.93
2017-08-28T06:57:53.372Z,89.50
2017-08-28T06:58:53.813Z,88.49
2017-08-28T06:59:54.247Z,88.97
2017-08-28T07:00:54.685Z,88.97
2017-08-28T07:01:55.127Z,88.39
2017-08-28T07:03:48.349Z,88.39
2017-08-28T07:04:48.798Z,88.78
2017-08-28T07:05:49.237Z,88.68
2017-08-28T07:06:49.678Z,88.59
2017-08-28T07:08:43.885Z,89.16
2017-08-28T07:09:44.329Z,89.07
2017-08-28T07:10:44.765Z,89.07
2017-08-28T07:11:45.208Z,88.73
2017-08-28T07:12:52.156Z,88.92
2017-08-28T07:14:38.861Z,88.73
2017-08-28T07:15:39.317Z,88.68
2017-08-28T07:16:39.757Z,88.82
2017-08-28T07:17:40.194Z,88.49
2017-08-28T07:18:40.633Z,88.63
2017-08-28T07:20:33.854Z,89.11
2017-08-28T07:21:34.300Z,88.82
2017-08-28T07:22:34.741Z,88.92
2017-08-28T07:23:35.184Z,88.53
2017-08-28T07:25:28.407Z,88.53
2017-08-28T07:26:28.851Z,87.96
2017-08-28T07:27:29.292Z,87.76
2017-08-28T07:28:29.749Z,88.06
2017-08-28T07:30:22.964Z,87.81
2017-08-28T07:31:23.408Z,87.23
2017-08-28T07:32:23.856Z,87.27
2017-08-28T07:34:17.088Z,85.68
2017-08-28T07:35:17.537Z,85.39
2017-08-28T07:36:17.970Z,85.34
2017-08-28T07:37:18.412Z,85.24
2017-08-28T07:39:11.640Z,84.61
2017-08-28T07:40:12.094Z,83.88
2017-08-28T07:41:12.542Z,83.73
2017-08-28T07:43:05.784Z,82.51
2017-08-28T07:44:06.220Z,81.16
2017-08-28T07:45:06.670Z,81.70
2017-08-28T07:46:07.112Z,82.38
2017-08-28T07:47:07.569Z,82.24
2017-08-28T07:48:08.015Z,81.70
2017-08-28T07:49:08.456Z,82.43
2017-08-28T07:50:23.520Z,83.36
2017-08-28T07:51:09.357Z,83.20
2017-08-28T07:52:09.807Z,81.70
2017-08-28T07:53:10.254Z,81.27
2017-08-28T07:54:10.713Z,81.66
2017-08-28T07:55:11.161Z,81.51
2017-08-28T07:56:11.615Z,80.62
2017-08-28T07:57:12.070Z,77.90
2017-08-28T07:58:12.527Z,76.64
2017-08-28T08:00:06.778Z,75.65
2017-08-28T08:02:00.023Z,72.85
2017-08-28T08:03:00.502Z,73.24
2017-08-28T08:04:00.945Z,73.46
2017-08-28T08:05:01.405Z,74.46
2017-08-28T08:06:54.681Z,69.98
2017-08-28T08:08:47.942Z,70.98
2017-08-28T08:10:41.200Z,64.78
2017-08-28T08:11:41.667Z,61.19
2017-08-28T08:12:42.130Z,64.04
2017-08-28T08:13:42.587Z,67.01
2017-08-28T08:14:43.051Z,70.10
2017-08-28T08:15:43.509Z,68.85
2017-08-28T08:17:36.771Z,62.71
2017-08-28T08:18:37.241Z,61.07
2017-08-28T08:19:37.707Z,58.95
2017-08-28T08:20:38.168Z,55.30
2017-08-28T08:22:31.485Z,61.04
2017-08-28T08:24:24.779Z,65.72
2017-08-28T08:25:25.234Z,64.95
2017-08-28T08:26:25.697Z,64.95
2017-08-28T08:28:18.956Z,64.79
2017-08-28T08:29:19.423Z,64.20
2017-08-28T08:30:19.883Z,68.49
2017-08-28T08:31:20.347Z,72.67
2017-08-28T08:33:13.598Z,76.51
2017-08-28T08:34:14.054Z,77.19
2017-08-28T08:35:14.506Z,76.10
2017-08-28T08:36:14.969Z,73.67
2017-08-28T08:37:15.415Z,71.23
2017-08-28T08:38:15.871Z,67.50
2017-08-28T08:39:16.343Z,66.17
2017-08-28T08:41:09.593Z,59.03
2017-08-28T08:42:10.058Z,56.61
2017-08-28T08:43:10.518Z,53.80
2017-08-28T08:44:10.986Z,50.16
2017-08-28T08:46:04.243Z,52.86
2017-08-28T08:47:04.717Z,59.00
2017-08-28T08:48:05.172Z,61.01
2017-08-28T08:49:05.629Z,60.71
2017-08-28T08:50:06.090Z,61.21
2017-08-28T08:51:06.553Z,61.79
2017-08-28T08:52:07.008Z,63.66
2017-08-28T08:54:00.753Z,67.01
2017-08-28T08:55:54.004Z,63.85
2017-08-28T08:56:54.472Z,64.30
2017-08-28T08:57:54.947Z,63.82
2017-08-28T08:58:55.378Z,61.49
2017-08-28T08:59:55.830Z,61.49
2017-08-28T09:01:52.338Z,63.01
2017-08-28T09:03:42.354Z,64.04
2017-08-28T09:04:42.806Z,66.50
2017-08-28T09:06:57.197Z,69.68
2017-08-28T09:08:29.303Z,69.97
2017-08-28T09:09:29.781Z,70.87
2017-08-28T09:10:30.216Z,68.88
2017-08-28T09:11:30.681Z,67.72
2017-08-28T09:12:31.103Z,65.88
2017-08-28T09:13:31.560Z,64.14
2017-08-28T09:15:24.922Z,65.85
2017-08-28T09:16:25.379Z,65.56
2017-08-28T09:17:25.831Z,64.82
2017-08-28T09:18:26.285Z,64.95
2017-08-28T09:19:26.737Z,64.95
2017-08-28T09:20:27.191Z,61.18
2017-08-28T09:22:20.463Z,58.52
2017-08-28T09:24:14.707Z,53.30
2017-08-28T09:26:07.986Z,56.56
2017-08-28T09:27:08.442Z,60.75
2017-08-28T09:28:08.903Z,60.37
2017-08-28T09:29:09.366Z,60.11
2017-08-28T09:30:10.734Z,58.72
2017-08-28T09:31:10.293Z,56.54
2017-08-28T09:33:03.546Z,52.78
2017-08-28T09:34:04.012Z,51.55
2017-08-28T09:35:04.475Z,52.78
2017-08-28T09:36:04.940Z,52.52
2017-08-28T09:37:58.212Z,50.31
2017-08-28T09:38:58.693Z,51.28
2017-08-28T09:39:59.153Z,54.14
2017-08-28T09:40:59.613Z,52.23
2017-08-28T09:42:00.079Z,48.63
2017-08-28T09:43:54.338Z,48.80
2017-08-28T09:45:47.613Z,53.15
2017-08-28T09:46:48.088Z,53.13
2017-08-28T09:47:48.566Z,52.43
2017-08-28T09:49:41.820Z,48.78
2017-08-28T09:50:42.311Z,48.24
2017-08-28T09:51:42.756Z,46.59
2017-08-28T09:52:43.223Z,48.37
2017-08-28T09:53:43.685Z,54.86
2017-08-28T09:54:44.147Z,52.74
2017-08-28T09:56:37.399Z,53.70
2017-08-28T09:57:37.870Z,55.68
2017-08-28T09:58:38.341Z,55.93
2017-08-28T09:59:38.787Z,53.83
2017-08-28T10:00:39.254Z,52.55
2017-08-28T10:01:39.711Z,51.40
2017-08-28T10:02:40.168Z,48.19
2017-08-28T10:03:40.635Z,45.73
2017-08-28T10:05:36.886Z,41.91
2017-08-28T10:06:37.331Z,42.44
2017-08-28T10:08:30.638Z,44.79
2017-08-28T10:09:31.085Z,45.31
2017-08-28T10:10:31.548Z,41.62
2017-08-28T10:12:24.816Z,40.17
2017-08-28T10:13:25.289Z,38.78
2017-08-28T10:14:25.763Z,36.98
2017-08-28T10:15:26.222Z,37.30
2017-08-28T10:16:41.554Z,34.18
2017-08-28T10:17:27.157Z,34.89
2017-08-28T10:18:27.635Z,39.94
2017-08-28T10:19:28.113Z,42.52
2017-08-28T10:21:21.389Z,36.37
2017-08-28T10:22:21.866Z,36.83
2017-08-28T10:23:22.345Z,34.23
2017-08-28T10:25:15.620Z,30.10
2017-08-28T10:26:16.105Z,31.38
2017-08-28T10:27:16.581Z,31.46
2017-08-28T10:28:21.878Z,31.56
2017-08-28T10:29:17.520Z,32.59
2017-08-28T10:30:17.992Z,30.16
2017-08-28T10:31:18.470Z,29.74
2017-08-28T10:32:40.112Z,30.63
2017-08-28T10:35:03.816Z,29.62
2017-08-28T10:38:21.257Z,29.25
2017-08-28T10:40:28.545Z,30.54
2017-08-28T10:41:44.941Z,28.24
2017-08-28T10:42:30.035Z,31.04
2017-08-28T10:43:15.751Z,33.67
2017-08-28T10:45:09.038Z,33.72
2017-08-28T10:46:37.250Z,38.59
2017-08-28T10:48:14.073Z,38.30
2017-08-28T10:50:51.705Z,47.45
2017-08-28T10:52:37.513Z,48.95
2017-08-28T10:53:34.993Z,48.06
2017-08-28T10:54:51.863Z,48.90
2017-08-28T10:57:57.103Z,47.98
2017-08-28T10:59:04.368Z,47.45
2017-08-28T11:00:25.857Z,45.68
2017-08-28T11:02:34.404Z,47.57
2017-08-28T11:03:56.881Z,49.65
2017-08-28T11:04:33.562Z,50.62
2017-08-28T11:07:12.406Z,53.57
2017-08-28T11:08:14.392Z,55.93
2017-08-28T11:12:15.318Z,55.99
2017-08-28T11:13:51.576Z,55.02
2017-08-28T11:19:03.888Z,58.83
2017-08-28T11:23:02.816Z,58.51
2017-08-28T11:24:56.065Z,59.09
2017-08-28T11:27:13.578Z,57.96
2017-08-28T11:28:04.569Z,56.83
2017-08-28T11:28:50.223Z,56.28
2017-08-28T11:29:50.676Z,56.09
2017-08-28T11:30:51.121Z,55.99
2017-08-28T11:33:59.467Z,56.11
2017-08-28T11:35:17.950Z,54.08
2017-08-28T11:37:11.223Z,54.01
2017-08-28T11:38:11.666Z,53.36
2017-08-28T11:39:12.178Z,51.45
2017-08-28T11:40:12.553Z,50.89
2017-08-28T11:42:31.594Z,49.85
2017-08-28T11:43:59.079Z,49.63
2017-08-28T11:44:59.588Z,50.21
2017-08-28T11:45:59.999Z,51.30
2017-08-28T11:47:53.224Z,51.25
2017-08-28T11:49:46.481Z,52.24
2017-08-28T11:51:39.720Z,52.08
2017-08-28T11:53:32.988Z,50.84
2017-08-28T11:54:33.452Z,51.62
2017-08-28T11:56:27.194Z,51.74
2017-08-28T11:58:20.422Z,50.84
2017-08-28T11:59:20.905Z,51.81
2017-08-28T12:00:21.336Z,50.84
2017-08-28T12:01:21.775Z,51.62
2017-08-28T12:08:36.914Z,54.17
2017-08-28T12:10:28.964Z,52.44
2017-08-28T12:14:26.562Z,52.31
2017-08-28T12:15:02.555Z,52.41
2017-08-28T12:15:56.223Z,52.31
2017-08-28T12:16:56.669Z,52.05
2017-08-28T12:17:57.122Z,53.19
2017-08-28T12:19:50.353Z,53.28
2017-08-28T12:20:50.807Z,54.13
2017-08-28T12:21:51.255Z,53.77
2017-08-28T12:22:51.700Z,54.17
2017-08-28T12:24:44.946Z,54.66
2017-08-28T12:25:45.402Z,53.11
2017-08-28T12:26:45.835Z,52.02
2017-08-28T12:27:46.300Z,51.64
2017-08-28T12:28:46.732Z,52.22
2017-08-28T12:29:47.183Z,52.41
2017-08-28T12:31:40.409Z,51.64
2017-08-28T12:32:40.862Z,51.83
2017-08-28T12:33:41.312Z,52.51
2017-08-28T12:34:41.754Z,52.02
2017-08-28T12:35:42.200Z,52.51
2017-08-28T12:36:42.650Z,51.76
2017-08-28T12:38:35.922Z,51.37
2017-08-28T12:39:43.134Z,56.09
2017-08-28T12:41:04.632Z,54.44
2017-08-28T12:41:37.228Z,56.05
2017-08-28T12:42:37.679Z,55.45
2017-08-28T12:43:38.127Z,55.35
2017-08-28T12:44:45.138Z,56.00
2017-08-28T12:45:39.020Z,57.74
2017-08-28T12:47:32.254Z,55.90
2017-08-28T12:48:32.708Z,58.73
2017-08-28T12:49:33.161Z,56.68
2017-08-28T12:50:33.603Z,56.90
2017-08-28T12:54:21.105Z,56.87
2017-08-28T13:00:54.972Z,56.10
2017-08-28T13:03:48.484Z,56.71
2017-08-28T13:08:09.326Z,56.73
2017-08-28T13:17:15.896Z,58.37
2017-08-28T13:28:55.927Z,60.93
2017-08-28T13:31:01.373Z,58.15
2017-08-28T13:36:22.090Z,58.15
2017-08-28T13:37:54.155Z,58.15
2017-08-28T13:39:22.598Z,57.57
2017-08-28T13:44:46.636Z,57.70
2017-08-28T13:45:35.837Z,56.57
2017-08-28T13:47:30.064Z,57.51
2017-08-28T13:48:45.320Z,56.05
2017-08-28T13:49:30.976Z,55.89
2017-08-28T13:51:24.221Z,55.21
2017-08-28T13:52:24.741Z,57.41
2017-08-28T13:54:25.557Z,55.19
2017-08-28T13:55:26.016Z,56.25
2017-08-28T13:57:19.329Z,55.57
2017-08-28T13:58:19.708Z,55.19
2017-08-28T13:59:20.156Z,56.83
2017-08-28T14:01:13.404Z,56.32
2017-08-28T14:02:13.845Z,56.71
2017-08-28T14:03:14.293Z,57.64
2017-08-28T14:05:07.542Z,56.77
2017-08-28T14:07:41.153Z,59.77
2017-08-28T14:09:34.375Z,59.58
2017-08-28T14:10:34.852Z,57.54
2017-08-28T14:13:08.400Z,60.06
2017-08-28T14:15:56.225Z,61.31
2017-08-28T14:18:56.633Z,61.60
2017-08-28T14:19:51.783Z,60.54
2017-08-28T14:20:17.283Z,58.90
2017-08-28T14:24:04.920Z,57.81
2017-08-28T14:24:45.018Z,58.19
2017-08-28T14:25:44.667Z,59.09
2017-08-28T14:27:38.917Z,59.48
2017-08-28T14:28:39.349Z,59.67
2017-08-28T14:29:39.834Z,59.51
2017-08-28T14:35:53.275Z,58.93
2017-08-28T14:36:21.826Z,59.31
2017-08-28T14:37:22.265Z,59.22
2017-08-28T14:38:22.712Z,59.02
2017-08-28T14:40:15.958Z,57.31
2017-08-28T14:41:16.417Z,58.86
2017-08-28T14:45:11.639Z,60.47
2017-08-28T14:47:43.614Z,59.99
2017-08-28T14:48:19.625Z,59.51
2017-08-28T14:52:35.728Z,56.61
2017-08-28T14:54:17.752Z,56.80
2017-08-28T14:56:33.640Z,57.79
2017-08-28T14:58:23.144Z,57.60
2017-08-28T15:02:19.556Z,56.05
2017-08-28T15:03:20.017Z,55.99
2017-08-28T15:04:20.523Z,55.57
2017-08-28T15:06:13.717Z,56.15
2017-08-28T15:07:14.173Z,54.99
2017-08-28T15:09:39.177Z,55.21
2017-08-28T15:10:07.870Z,57.24
2017-08-28T15:11:08.314Z,55.51
2017-08-28T15:12:08.762Z,55.99
2017-08-28T15:14:02.008Z,55.41
2017-08-28T15:15:17.246Z,56.95
2017-08-28T15:16:02.924Z,57.73
2017-08-28T15:17:56.221Z,56.28
2017-08-28T15:19:32.390Z,56.18
2017-08-28T15:20:49.925Z,56.28
2017-08-28T15:21:50.365Z,57.24
2017-08-28T15:22:50.817Z,56.37
2017-08-28T15:23:51.270Z,55.99
2017-08-28T15:25:45.484Z,56.25
2017-08-28T15:32:53.600Z,57.73
2017-08-28T15:33:54.052Z,55.77
2017-08-28T15:34:54.495Z,55.77
2017-08-28T15:35:54.939Z,55.96
2017-08-28T15:36:55.388Z,55.19
2017-08-28T15:38:48.624Z,56.47
2017-08-28T15:39:49.075Z,56.18
2017-08-28T15:40:49.524Z,55.02
2017-08-28T15:41:49.973Z,56.76
2017-08-28T15:43:43.212Z,53.77
2017-08-28T15:44:43.668Z,56.76
2017-08-28T15:45:44.107Z,54.08
2017-08-28T15:47:37.356Z,54.75
2017-08-28T15:48:37.805Z,55.53
2017-08-28T15:49:38.253Z,54.37
2017-08-28T15:51:32.482Z,52.44
2017-08-28T15:52:32.918Z,55.41
2017-08-28T15:53:33.370Z,54.08
2017-08-28T15:54:33.819Z,53.09
2017-08-28T15:56:27.094Z,53.96
2017-08-28T15:57:27.551Z,52.89
2017-08-28T15:59:20.788Z,53.47
2017-08-28T16:00:21.241Z,52.70
2017-08-28T16:01:21.688Z,54.63
2017-08-28T16:02:22.132Z,54.05
2017-08-28T16:03:22.579Z,55.41
2017-08-28T16:05:15.810Z,54.25
2017-08-28T16:06:16.264Z,53.57
2017-08-28T16:07:16.711Z,53.09
2017-08-28T16:08:17.157Z,54.15
2017-08-28T16:10:10.402Z,54.25
2017-08-28T16:11:10.860Z,53.28
2017-08-28T16:12:11.311Z,53.64
2017-08-28T16:14:04.557Z,55.60
2017-08-28T16:15:57.789Z,56.09
2017-08-28T16:16:58.240Z,55.99
2017-08-28T16:17:58.686Z,54.53
2017-08-28T16:18:59.137Z,53.96
2017-08-28T16:20:20.748Z,52.99
2017-08-28T16:21:14.541Z,53.57
2017-08-28T16:22:00.473Z,53.47
2017-08-28T16:23:53.720Z,55.51
2017-08-28T16:24:54.175Z,54.35
2017-08-28T16:25:54.630Z,54.73
2017-08-28T16:26:55.064Z,54.05
2017-08-28T16:27:55.512Z,53.67
2017-08-28T16:29:48.753Z,53.77
2017-08-28T16:30:49.205Z,53.86
2017-08-28T16:31:49.654Z,53.38
2017-08-28T16:32:50.104Z,55.11
2017-08-28T16:33:50.543Z,54.25
2017-08-28T16:34:50.989Z,54.05
2017-08-28T16:36:45.237Z,53.96
2017-08-28T16:38:38.450Z,55.09
2017-08-28T16:39:38.906Z,54.61
2017-08-28T16:40:39.350Z,55.11
2017-08-28T16:41:39.788Z,54.44
2017-08-28T16:48:13.968Z,54.03
2017-08-28T16:49:14.418Z,54.32
2017-08-28T16:52:30.381Z,54.58
2017-08-28T16:53:30.808Z,55.93
2017-08-28T16:55:28.181Z,56.03
2017-08-28T16:56:28.646Z,56.61
2017-08-28T16:58:27.156Z,57.09
2017-08-28T16:59:27.611Z,56.71
2017-08-28T17:00:28.033Z,56.87
2017-08-28T17:01:28.472Z,57.35
2017-08-28T17:02:28.907Z,58.90
2017-08-28T17:04:34.381Z,58.70
2017-08-28T17:05:34.891Z,59.00
2017-08-28T17:06:35.259Z,58.12
2017-08-28T17:07:35.697Z,58.12
2017-08-28T17:08:36.140Z,58.12
2017-08-28T17:09:36.577Z,59.00
2017-08-28T17:10:37.017Z,58.61
2017-08-28T17:11:37.486Z,58.90
2017-08-28T17:12:37.904Z,59.00
2017-08-28T17:13:31.940Z,58.90
2017-08-28T17:14:32.336Z,58.61
2017-08-28T17:22:00.263Z,58.90
2017-08-28T17:22:36.458Z,59.48
2017-08-28T17:34:13.049Z,59.38
2017-08-28T17:35:28.315Z,58.03
2017-08-28T17:36:13.976Z,58.61
2017-08-28T17:37:14.468Z,58.12
2017-08-28T17:38:14.837Z,59.83
2017-08-28T17:39:15.279Z,59.35
2017-08-28T17:40:15.722Z,56.84
2017-08-28T17:41:16.160Z,57.32
2017-08-28T17:42:31.318Z,56.84
2017-08-28T17:43:17.055Z,57.54
2017-08-28T17:44:17.506Z,55.10
2017-08-28T17:45:17.944Z,58.42
2017-08-28T17:46:18.394Z,55.78
2017-08-28T17:47:33.972Z,57.04
2017-08-28T17:48:19.279Z,54.82
2017-08-28T17:49:19.727Z,54.82
2017-08-28T17:50:20.169Z,56.56
2017-08-28T17:51:20.614Z,58.10
2017-08-28T17:52:21.064Z,56.94
2017-08-28T17:53:21.551Z,56.56
2017-08-28T17:54:21.956Z,56.65
2017-08-28T17:55:22.393Z,56.56
2017-08-28T17:56:24.823Z,56.56
2017-08-28T17:57:23.282Z,54.21
2017-08-28T17:58:23.733Z,57.39
2017-08-28T17:59:24.180Z,55.88
2017-08-28T18:00:24.622Z,55.66
2017-08-28T18:01:25.075Z,57.68
2017-08-28T18:02:25.565Z,60.00
2017-08-28T18:03:25.969Z,59.90
2017-08-28T18:04:26.424Z,59.61
2017-08-28T18:05:26.861Z,60.68
2017-08-28T18:06:27.297Z,61.32
2017-08-28T18:07:27.871Z,61.61
2017-08-28T18:08:28.195Z,62.48
2017-08-28T18:09:28.635Z,62.38
2017-08-28T18:10:29.086Z,62.66
2017-08-28T18:11:29.525Z,62.96
2017-08-28T18:12:32.832Z,63.24
2017-08-28T18:13:30.416Z,64.02